Time;durP1;ratioP1;P1;durP2;ratioP2;P2;SDS_P1;SDS_P2;PMS_P1;PMS_P2;Temp;Humidity;BMP_temperature;BMP_pressure;BME280_temperature;BME280_humidity;BME280_pressure;Samples;Min_cycle;Max_cycle;Signal;HPM_P1;HPM_P2
2023/04/13 00:00:50;;;;;;;0.57;0.57;;;7.30;99.90;;;;;;5042114;28;20181;-42
2023/04/13 00:03:17;;;;;;;0.60;0.60;;;7.30;99.90;;;;;;5042087;28;20262;-41
2023/04/13 00:05:44;;;;;;;1.17;0.70;;;7.30;99.90;;;;;;5026787;28;20205;-39
2023/04/13 00:08:10;;;;;;;0.60;0.60;;;7.30;99.90;;;;;;5015769;28;20185;-41
2023/04/13 00:10:39;;;;;;;0.90;0.70;;;7.30;99.90;;;;;;5024657;28;20260;-39
2023/04/13 00:13:07;;;;;;;1.43;0.67;;;7.30;99.90;;;;;;5037172;28;20206;-40
2023/04/13 00:15:35;;;;;;;0.50;0.50;;;7.30;99.90;;;;;;5032471;28;20260;-38
2023/04/13 00:18:02;;;;;;;0.67;0.67;;;7.30;99.90;;;;;;5022028;28;20285;-38
2023/04/13 00:20:28;;;;;;;0.77;0.50;;;7.30;99.90;;;;;;5025536;28;20192;-37
2023/04/13 00:22:55;;;;;;;0.63;0.60;;;7.30;99.90;;;;;;5032050;28;20197;-38
2023/04/13 00:25:20;;;;;;;1.50;0.70;;;7.30;99.90;;;;;;5016399;28;20245;-41
2023/04/13 00:27:48;;;;;;;0.50;0.50;;;7.30;99.90;;;;;;5019169;28;20185;-40
2023/04/13 00:30:15;;;;;;;0.60;0.60;;;7.40;99.90;;;;;;5033508;28;20178;-40
2023/04/13 00:32:42;;;;;;;0.80;0.77;;;7.30;99.90;;;;;;5019596;28;20185;-38
2023/04/13 00:35:09;;;;;;;1.23;0.70;;;7.40;99.90;;;;;;5032165;28;20195;-39
2023/04/13 00:37:36;;;;;;;0.60;0.60;;;7.40;99.90;;;;;;5014896;28;20256;-41
2023/04/13 00:40:04;;;;;;;1.00;0.70;;;7.40;99.90;;;;;;5027242;28;20186;-37
2023/04/13 00:42:30;;;;;;;2.40;0.77;;;7.40;99.90;;;;;;5020371;28;20194;-41
2023/04/13 00:44:56;;;;;;;1.20;0.60;;;7.40;99.90;;;;;;5015616;28;20228;-40
2023/04/13 00:47:27;;;;;;;1.37;0.60;;;7.40;99.90;;;;;;5032067;28;20182;-39
2023/04/13 00:49:54;;;;;;;0.87;0.70;;;7.40;99.90;;;;;;5028916;28;20236;-40
2023/04/13 00:52:20;;;;;;;1.23;0.70;;;7.40;99.90;;;;;;5030984;28;20170;-40
2023/04/13 00:54:47;;;;;;;0.70;0.70;;;7.40;99.90;;;;;;5031807;28;20218;-37
2023/04/13 00:57:15;;;;;;;0.40;0.40;;;7.30;99.90;;;;;;5029259;28;20174;-43
2023/04/13 00:59:41;;;;;;;1.53;0.80;;;7.30;99.90;;;;;;5012205;28;20178;-40
2023/04/13 01:02:07;;;;;;;1.27;0.60;;;7.30;99.90;;;;;;5021149;28;20205;-39
2023/04/13 01:04:33;;;;;;;0.70;0.70;;;7.30;99.90;;;;;;5023219;28;20205;-40
2023/04/13 01:07:26;;;;;;;1.17;0.80;;;7.30;99.90;;;;;;5017796;28;20188;-40
2023/04/13 01:10:04;;;;;;;2.90;1.10;;;7.30;99.90;;;;;;5030875;28;20186;-38
2023/04/13 01:13:02;;;;;;;2.03;1.00;;;7.30;99.90;;;;;;5016850;28;20189;-39
2023/04/13 01:15:35;;;;;;;0.87;0.70;;;7.30;99.90;;;;;;5021247;28;20206;-41
2023/04/13 01:18:07;;;;;;;1.37;0.90;;;7.30;99.90;;;;;;5043936;28;20186;-40
2023/04/13 01:20:36;;;;;;;2.00;0.87;;;7.30;99.90;;;;;;5030871;28;20185;-38
2023/04/13 01:23:31;;;;;;;1.63;0.90;;;7.40;99.90;;;;;;5026888;28;20185;-40
2023/04/13 01:26:05;;;;;;;1.07;0.63;;;7.40;99.90;;;;;;5000170;28;20205;-39
2023/04/13 01:28:33;;;;;;;2.63;0.70;;;7.30;99.90;;;;;;5030695;28;20185;-39
2023/04/13 01:31:00;;;;;;;0.93;0.90;;;7.30;99.90;;;;;;5011246;28;20178;-40
2023/04/13 01:33:29;;;;;;;0.90;0.77;;;7.30;99.90;;;;;;4998619;28;20230;-39
2023/04/13 01:35:59;;;;;;;1.27;0.70;;;7.30;99.90;;;;;;5014665;28;20197;-38
2023/04/13 01:38:25;;;;;;;0.70;0.60;;;7.30;99.90;;;;;;5003909;28;20182;-37
2023/04/13 01:40:54;;;;;;;0.70;0.57;;;7.20;99.90;;;;;;5027121;28;20244;-39
2023/04/13 01:43:22;;;;;;;1.10;0.70;;;7.20;99.90;;;;;;5012775;28;20186;-38
2023/04/13 01:46:20;;;;;;;0.73;0.60;;;7.10;99.90;;;;;;5024706;28;20181;-37
2023/04/13 01:49:01;;;;;;;1.23;0.70;;;7.10;99.90;;;;;;5021915;28;20186;-37
2023/04/13 01:51:39;;;;;;;1.87;0.70;;;7.10;99.90;;;;;;5041856;28;20181;-38
2023/04/13 01:54:22;;;;;;;0.50;0.50;;;7.10;99.90;;;;;;5013698;28;20218;-38
2023/04/13 01:56:49;;;;;;;2.43;0.60;;;7.00;99.90;;;;;;5011812;28;20193;-38
2023/04/13 01:59:16;;;;;;;0.40;0.40;;;7.00;99.90;;;;;;5029985;28;20170;-34
2023/04/13 02:01:42;;;;;;;1.27;0.70;;;7.00;99.90;;;;;;5030122;28;20188;-40
2023/04/13 02:04:09;;;;;;;1.03;0.50;;;7.00;99.90;;;;;;5013764;28;20204;-37
2023/04/13 02:06:36;;;;;;;0.50;0.50;;;7.00;99.90;;;;;;5014357;28;20186;-36
2023/04/13 02:09:06;;;;;;;1.17;0.67;;;7.00;99.90;;;;;;5030595;28;20267;-40
2023/04/13 02:11:36;;;;;;;0.70;0.70;;;7.00;99.90;;;;;;5026798;28;20257;-37
2023/04/13 02:14:04;;;;;;;1.40;0.43;;;6.90;99.90;;;;;;5027676;28;20237;-39
2023/04/13 02:16:30;;;;;;;0.70;0.70;;;6.90;99.90;;;;;;5026648;28;20209;-38
2023/04/13 02:18:57;;;;;;;0.90;0.60;;;6.90;99.90;;;;;;5008789;28;20178;-38
2023/04/13 02:21:24;;;;;;;1.90;0.60;;;6.90;99.90;;;;;;5010854;28;20174;-39
2023/04/13 02:23:51;;;;;;;0.73;0.60;;;6.90;99.90;;;;;;5046807;28;20187;-39
2023/04/13 02:26:17;;;;;;;1.77;0.83;;;6.90;99.90;;;;;;5020063;28;20247;-38
2023/04/13 02:28:44;;;;;;;1.27;0.80;;;6.80;99.90;;;;;;5030113;28;20179;-39
2023/04/13 02:31:15;;;;;;;1.57;0.70;;;6.80;99.90;;;;;;5045312;28;20638;-39
2023/04/13 02:33:42;;;;;;;1.03;0.73;;;6.80;99.90;;;;;;5028163;28;20291;-40
2023/04/13 02:36:08;;;;;;;0.60;0.60;;;6.80;99.90;;;;;;5014907;28;20185;-38
2023/04/13 02:38:37;;;;;;;0.60;0.60;;;6.80;99.90;;;;;;5028889;28;20181;-37
2023/04/13 02:41:21;;;;;;;0.97;0.60;;;6.80;99.90;;;;;;5022290;28;20261;-38
2023/04/13 02:43:49;;;;;;;1.70;0.60;;;6.80;99.90;;;;;;5029702;28;20187;-39
2023/04/13 02:46:15;;;;;;;1.00;0.87;;;6.70;99.90;;;;;;5015442;28;20188;-38
2023/04/13 02:48:41;;;;;;;2.47;0.83;;;6.70;99.90;;;;;;5026185;28;20180;-37
2023/04/13 02:51:07;;;;;;;2.57;1.70;;;6.60;99.90;;;;;;5010099;28;20183;-37
2023/04/13 02:53:37;;;;;;;2.17;1.50;;;6.60;99.90;;;;;;5010242;28;20210;-39
2023/04/13 02:56:06;;;;;;;1.10;0.80;;;6.60;99.90;;;;;;5016389;28;20181;-38
2023/04/13 02:58:33;;;;;;;0.80;0.77;;;6.60;99.90;;;;;;5029592;28;20178;-37
2023/04/13 03:01:03;;;;;;;1.37;1.00;;;6.60;99.90;;;;;;5045949;28;20181;-39
2023/04/13 03:03:29;;;;;;;2.03;0.80;;;6.60;99.90;;;;;;5029774;28;20173;-38
2023/04/13 03:05:56;;;;;;;1.87;0.80;;;6.60;99.90;;;;;;5028134;28;20227;-38
2023/04/13 03:08:33;;;;;;;1.70;0.87;;;6.60;99.90;;;;;;5012449;28;20203;-38
2023/04/13 03:11:22;;;;;;;3.50;1.00;;;6.60;99.90;;;;;;5010025;28;20181;-37
2023/04/13 03:14:06;;;;;;;4.97;1.17;;;6.70;99.90;;;;;;5016681;28;20345;-39
2023/04/13 03:16:33;;;;;;;1.90;0.90;;;6.70;99.90;;;;;;5026408;28;20678;-38
2023/04/13 03:19:00;;;;;;;1.73;1.17;;;6.70;99.90;;;;;;5016405;28;20177;-37
2023/04/13 03:21:26;;;;;;;3.50;1.50;;;6.70;99.90;;;;;;5027101;28;20188;-38
2023/04/13 03:24:01;;;;;;;2.80;2.30;;;6.70;99.90;;;;;;5045186;28;20199;-36
2023/04/13 03:26:27;;;;;;;3.50;1.10;;;6.70;99.90;;;;;;5029088;28;20256;-33
2023/04/13 03:28:56;;;;;;;3.37;1.10;;;6.80;99.90;;;;;;5028430;28;20199;-36
2023/04/13 03:31:22;;;;;;;1.20;1.10;;;6.80;99.90;;;;;;5013159;28;20216;-37
2023/04/13 03:33:51;;;;;;;1.27;1.10;;;6.80;99.90;;;;;;5012617;28;20203;-37
2023/04/13 03:36:16;;;;;;;2.70;1.20;;;6.80;99.90;;;;;;5044577;28;20200;-39
2023/04/13 03:38:42;;;;;;;1.60;0.90;;;6.70;99.90;;;;;;5027574;28;20188;-38
2023/04/13 03:41:09;;;;;;;5.00;0.97;;;6.70;99.90;;;;;;5022176;28;20647;-37
2023/04/13 03:43:36;;;;;;;3.10;1.63;;;6.70;99.90;;;;;;5033339;28;20175;-38
2023/04/13 03:46:09;;;;;;;2.97;1.60;;;6.70;99.90;;;;;;5032834;28;20208;-39
2023/04/13 03:48:37;;;;;;;2.37;1.10;;;6.70;99.90;;;;;;5031474;28;20189;-37
2023/04/13 03:51:05;;;;;;;2.27;1.10;;;6.60;99.90;;;;;;5016111;28;20190;-37
2023/04/13 03:53:43;;;;;;;6.67;2.70;;;6.60;99.90;;;;;;5033127;28;20284;-34
2023/04/13 03:56:09;;;;;;;4.20;2.00;;;6.60;99.90;;;;;;5020176;28;20185;-37
2023/04/13 03:58:36;;;;;;;2.83;1.50;;;6.60;99.90;;;;;;5026875;28;20207;-34
2023/04/13 04:01:03;;;;;;;1.63;1.00;;;6.60;99.90;;;;;;5016669;28;20184;-38
2023/04/13 04:03:48;;;;;;;3.80;0.93;;;6.60;99.90;;;;;;5031037;28;20184;-40
2023/04/13 04:06:14;;;;;;;2.00;1.00;;;6.60;99.90;;;;;;5029843;28;20203;-36
2023/04/13 04:08:48;;;;;;;1.63;1.00;;;6.70;99.90;;;;;;5013133;28;20192;-35
2023/04/13 04:11:33;;;;;;;2.00;0.70;;;6.70;99.90;;;;;;5016858;28;20679;-40
2023/04/13 04:13:59;;;;;;;2.17;0.97;;;6.70;99.90;;;;;;5018360;28;20207;-36
2023/04/13 04:16:26;;;;;;;5.13;1.20;;;6.70;99.90;;;;;;5028932;28;20180;-40
2023/04/13 04:19:00;;;;;;;1.90;0.90;;;6.70;99.90;;;;;;5013772;28;20176;-39
2023/04/13 04:21:33;;;;;;;1.10;0.77;;;6.70;99.90;;;;;;5045540;28;20180;-39
2023/04/13 04:24:01;;;;;;;3.27;1.07;;;6.70;99.90;;;;;;5027182;28;20211;-38
2023/04/13 04:26:28;;;;;;;1.27;0.87;;;6.70;99.90;;;;;;5012396;28;20200;-37
2023/04/13 04:29:02;;;;;;;6.20;1.20;;;6.70;99.90;;;;;;5029945;28;20188;-36
2023/04/13 04:31:34;;;;;;;1.70;1.00;;;6.70;99.90;;;;;;5018985;28;20186;-37
2023/04/13 04:34:02;;;;;;;2.60;1.10;;;6.70;99.90;;;;;;5029044;28;20235;-38
2023/04/13 04:36:32;;;;;;;5.57;1.90;;;6.70;99.90;;;;;;5016239;28;20222;-35
2023/04/13 04:39:01;;;;;;;5.40;2.20;;;6.70;99.90;;;;;;5031848;28;20234;-36
2023/04/13 04:41:30;;;;;;;1.93;1.00;;;6.70;99.90;;;;;;5012681;28;20181;-38
2023/04/13 04:44:02;;;;;;;3.27;1.20;;;6.70;99.90;;;;;;5012490;28;20296;-37
2023/04/13 04:46:32;;;;;;;5.57;1.10;;;6.70;99.90;;;;;;5032601;28;20189;-39
2023/04/13 04:49:04;;;;;;;2.77;1.10;;;6.70;99.90;;;;;;5011792;28;20203;-35
2023/04/13 04:51:30;;;;;;;4.80;1.30;;;6.70;99.90;;;;;;4996710;28;20184;-38
2023/04/13 04:54:02;;;;;;;4.73;1.37;;;6.70;99.90;;;;;;4993538;28;20224;-40
2023/04/13 04:56:29;;;;;;;2.80;1.43;;;6.70;99.90;;;;;;5014364;28;20273;-37
2023/04/13 04:58:58;;;;;;;3.17;1.03;;;6.70;99.90;;;;;;5031744;28;20189;-38
2023/04/13 05:01:37;;;;;;;2.97;1.00;;;6.70;99.90;;;;;;5031663;28;20184;-34
2023/04/13 05:04:11;;;;;;;4.27;1.10;;;6.70;99.90;;;;;;5001431;28;20296;-35
2023/04/13 05:06:43;;;;;;;1.67;0.70;;;6.70;99.90;;;;;;5031461;28;20278;-39
2023/04/13 05:09:13;;;;;;;2.70;1.03;;;6.70;99.90;;;;;;5010414;28;20189;-38
2023/04/13 05:11:45;;;;;;;3.10;1.00;;;6.80;99.90;;;;;;5030016;28;20229;-35
2023/04/13 05:14:12;;;;;;;1.63;1.00;;;6.80;99.90;;;;;;5018992;28;20204;-40
2023/04/13 05:16:39;;;;;;;2.07;0.90;;;6.80;99.90;;;;;;5029716;28;20287;-37
2023/04/13 05:19:22;;;;;;;2.30;0.90;;;6.80;99.90;;;;;;5011819;28;20658;-36
2023/04/13 05:22:00;;;;;;;1.93;0.93;;;6.90;99.90;;;;;;5013197;28;20263;-38
2023/04/13 05:24:26;;;;;;;2.17;0.97;;;6.90;99.90;;;;;;5031171;28;20200;-39
2023/04/13 05:26:55;;;;;;;1.60;0.80;;;6.80;99.90;;;;;;5030769;28;20183;-37
2023/04/13 05:29:22;;;;;;;1.13;0.70;;;6.80;99.90;;;;;;5027075;28;20255;-40
2023/04/13 05:31:48;;;;;;;4.73;1.00;;;6.80;99.90;;;;;;5021811;28;20182;-37
2023/04/13 05:34:15;;;;;;;2.67;0.90;;;6.80;99.90;;;;;;5030992;28;20221;-37
2023/04/13 05:36:52;;;;;;;1.07;0.73;;;6.80;99.90;;;;;;5029341;28;20180;-38
2023/04/13 05:39:19;;;;;;;3.57;1.10;;;6.80;99.90;;;;;;5024519;28;20184;-35
2023/04/13 05:41:45;;;;;;;3.80;1.37;;;6.90;99.90;;;;;;5038693;28;20171;-37
2023/04/13 05:44:12;;;;;;;2.73;1.30;;;6.90;99.90;;;;;;5045258;28;20196;-40
2023/04/13 05:46:38;;;;;;;2.70;0.97;;;6.90;99.90;;;;;;5038216;28;20232;-39
2023/04/13 05:49:05;;;;;;;2.73;0.90;;;7.00;99.90;;;;;;5037358;28;20264;-36
2023/04/13 05:51:31;;;;;;;4.03;1.00;;;7.00;99.90;;;;;;5030961;28;20669;-36
2023/04/13 05:53:58;;;;;;;3.47;0.83;;;7.00;99.90;;;;;;5035298;28;20216;-37
2023/04/13 05:56:24;;;;;;;1.83;0.90;;;7.00;99.90;;;;;;5038154;28;20213;-36
2023/04/13 05:58:52;;;;;;;1.77;1.07;;;7.00;99.90;;;;;;5039585;28;20181;-39
2023/04/13 06:01:30;;;;;;;3.40;0.90;;;7.00;99.90;;;;;;5020789;28;20180;-36
2023/04/13 06:03:57;;;;;;;2.80;1.10;;;7.10;99.90;;;;;;5029043;28;20206;-38
2023/04/13 06:06:23;;;;;;;4.27;1.00;;;7.00;99.90;;;;;;5010462;28;20552;-39
2023/04/13 06:08:51;;;;;;;5.10;2.47;;;7.00;99.90;;;;;;5013282;28;20182;-39
2023/04/13 06:11:17;;;;;;;7.97;5.43;;;7.00;99.90;;;;;;5027695;28;20203;-37
2023/04/13 06:13:43;;;;;;;7.57;4.57;;;7.00;99.90;;;;;;5026516;28;20264;-37
2023/04/13 06:16:09;;;;;;;3.83;1.47;;;7.00;99.90;;;;;;5025577;28;20193;-38
2023/04/13 06:18:36;;;;;;;3.20;1.10;;;7.10;99.90;;;;;;5008886;28;20182;-38
2023/04/13 06:21:02;;;;;;;3.33;1.00;;;7.10;99.90;;;;;;5009003;28;20183;-39
2023/04/13 06:23:30;;;;;;;1.93;1.00;;;7.10;99.90;;;;;;5033922;28;20222;-37
2023/04/13 06:26:00;;;;;;;3.60;1.30;;;7.10;99.90;;;;;;5020932;28;20274;-37
2023/04/13 06:28:39;;;;;;;4.23;1.30;;;7.10;99.90;;;;;;5036463;28;20187;-36
2023/04/13 06:31:06;;;;;;;2.87;1.27;;;7.10;99.90;;;;;;5040782;28;20203;-38
2023/04/13 06:33:32;;;;;;;4.60;1.30;;;7.10;99.90;;;;;;5040474;28;20219;-39
2023/04/13 06:36:04;;;;;;;4.57;1.40;;;7.10;99.90;;;;;;5040730;28;20177;-39
2023/04/13 06:38:33;;;;;;;4.80;1.63;;;7.10;99.90;;;;;;5023054;28;20728;-36
2023/04/13 06:41:05;;;;;;;4.00;1.20;;;7.20;99.90;;;;;;5023086;28;20314;-36
2023/04/13 06:43:34;;;;;;;4.83;1.33;;;7.30;99.90;;;;;;5020593;28;20190;-34
2023/04/13 06:46:13;;;;;;;3.03;1.27;;;7.30;99.90;;;;;;5049850;28;20188;-39
2023/04/13 06:48:40;;;;;;;3.90;1.30;;;7.40;99.90;;;;;;5047529;28;20710;-32
2023/04/13 06:51:06;;;;;;;5.10;1.40;;;7.40;99.90;;;;;;5010165;28;20201;-38
2023/04/13 06:53:34;;;;;;;3.13;1.00;;;7.30;99.90;;;;;;5010210;28;20213;-35
2023/04/13 06:56:00;;;;;;;4.47;1.43;;;7.40;99.90;;;;;;5027792;28;20193;-38
2023/04/13 06:58:26;;;;;;;3.00;1.20;;;7.40;99.90;;;;;;5029306;28;20181;-37
2023/04/13 07:00:52;;;;;;;2.30;1.30;;;7.50;99.90;;;;;;5029316;28;20319;-40
2023/04/13 07:03:17;;;;;;;2.53;1.00;;;7.50;99.90;;;;;;5029613;28;20177;-39
2023/04/13 07:05:44;;;;;;;3.57;1.10;;;7.50;99.90;;;;;;5029346;28;20324;-38
2023/04/13 07:08:13;;;;;;;4.83;1.13;;;7.60;99.90;;;;;;5030203;28;20189;-39
2023/04/13 07:10:42;;;;;;;4.87;1.40;;;7.60;99.90;;;;;;5029243;28;20261;-37
2023/04/13 07:13:17;;;;;;;5.17;1.40;;;7.70;99.90;;;;;;5029596;28;20204;-38
2023/04/13 07:15:42;;;;;;;6.07;1.70;;;7.90;99.90;;;;;;5029292;28;20202;-36
2023/04/13 07:18:08;;;;;;;4.27;1.33;;;8.10;99.90;;;;;;5012646;28;20269;-37
2023/04/13 07:20:35;;;;;;;4.67;1.30;;;8.10;99.90;;;;;;5024962;28;20661;-33
2023/04/13 07:23:01;;;;;;;4.87;1.10;;;8.10;99.90;;;;;;5027237;28;20900;-37
2023/04/13 07:25:27;;;;;;;4.77;1.17;;;8.10;99.90;;;;;;5024424;28;20218;-38
2023/04/13 07:27:53;;;;;;;4.03;1.50;;;8.10;99.90;;;;;;5037262;28;20184;-38
2023/04/13 07:30:21;;;;;;;4.40;1.60;;;8.10;99.90;;;;;;5032476;28;20184;-38
2023/04/13 07:32:48;;;;;;;4.20;1.63;;;8.10;99.90;;;;;;5029491;28;20256;-38
2023/04/13 07:35:15;;;;;;;6.60;3.03;;;8.10;99.90;;;;;;5025355;28;20211;-36
2023/04/13 07:40:17;;;;;;;4.60;1.60;;;8.10;99.90;;;;;;5047427;28;20228;-36
2023/04/13 07:42:50;;;;;;;5.10;1.57;;;8.10;99.90;;;;;;5033441;28;20188;-38
2023/04/13 07:45:19;;;;;;;4.40;1.33;;;8.20;99.90;;;;;;5048650;28;20197;-39
2023/04/13 07:47:46;;;;;;;5.90;1.53;;;8.20;99.90;;;;;;5065264;28;20208;-37
2023/04/13 07:50:12;;;;;;;5.33;1.43;;;8.30;99.90;;;;;;5032092;28;20275;-37
2023/04/13 07:52:38;;;;;;;9.43;1.80;;;8.30;99.90;;;;;;5044974;28;20181;-36
2023/04/13 07:55:06;;;;;;;9.30;3.70;;;8.30;99.90;;;;;;5032314;28;20202;-37
2023/04/13 07:57:36;;;;;;;3.00;1.50;;;8.40;99.90;;;;;;5040754;28;20208;-38
2023/04/13 08:00:05;;;;;;;6.70;1.90;;;8.30;99.90;;;;;;5032364;28;20228;-37
2023/04/13 08:02:40;;;;;;;6.53;1.40;;;8.30;99.90;;;;;;5029291;28;20237;-39
2023/04/13 08:05:08;;;;;;;3.80;1.40;;;8.40;99.90;;;;;;5046185;28;20178;-40
2023/04/13 08:07:35;;;;;;;4.40;1.30;;;8.50;99.90;;;;;;5039693;28;20178;-39
2023/04/13 08:10:02;;;;;;;4.83;1.40;;;8.60;99.90;;;;;;5032532;28;20185;-39
2023/04/13 08:12:28;;;;;;;4.80;1.50;;;8.60;99.90;;;;;;5048713;28;20235;-37
2023/04/13 08:14:54;;;;;;;5.50;1.27;;;8.70;99.90;;;;;;5032105;28;20206;-39
2023/04/13 08:17:20;;;;;;;6.40;1.30;;;8.80;99.90;;;;;;5048701;28;20188;-38
2023/04/13 08:19:46;;;;;;;4.17;1.40;;;8.90;99.90;;;;;;5048364;28;20225;-39
2023/04/13 08:22:14;;;;;;;4.73;2.07;;;8.80;99.90;;;;;;5048796;28;20256;-38
2023/04/13 08:24:40;;;;;;;4.33;1.17;;;8.80;99.90;;;;;;5031003;28;20185;-38
2023/04/13 08:27:06;;;;;;;4.87;2.00;;;8.90;99.90;;;;;;5032276;28;20186;-39
2023/04/13 08:29:32;;;;;;;3.40;1.70;;;8.80;99.90;;;;;;5034003;28;20220;-39
2023/04/13 08:31:59;;;;;;;4.83;1.50;;;8.80;99.90;;;;;;5052573;28;20221;-37
2023/04/13 08:34:27;;;;;;;5.07;1.60;;;8.80;99.90;;;;;;5044303;28;20208;-38
2023/04/13 08:36:54;;;;;;;7.27;1.90;;;8.70;99.90;;;;;;5035886;28;20178;-40
2023/04/13 08:39:22;;;;;;;4.43;1.60;;;8.80;99.90;;;;;;5052196;28;20210;-39
2023/04/13 08:41:49;;;;;;;5.07;1.90;;;8.80;99.90;;;;;;5052186;28;20227;-38
2023/04/13 08:44:18;;;;;;;9.00;2.17;;;8.90;99.90;;;;;;5036230;28;20181;-39
2023/04/13 08:46:47;;;;;;;6.33;1.80;;;8.80;99.90;;;;;;5052457;28;20646;-37
2023/04/13 08:49:17;;;;;;;5.30;1.80;;;8.80;99.90;;;;;;5035933;28;20285;-37
2023/04/13 08:52:18;;;;;;;5.43;1.80;;;8.80;99.90;;;;;;5043954;28;20181;-38
2023/04/13 08:54:49;;;;;;;5.73;2.00;;;8.80;99.90;;;;;;5052051;28;20211;-37
2023/04/13 08:57:22;;;;;;;5.33;1.70;;;8.70;99.90;;;;;;5036239;28;20207;-38
2023/04/13 08:59:52;;;;;;;8.60;2.00;;;8.60;99.90;;;;;;5051818;28;20213;-37
2023/04/13 09:02:25;;;;;;;6.47;1.63;;;8.70;99.90;;;;;;5035550;28;20174;-38
2023/04/13 09:04:59;;;;;;;4.63;1.63;;;8.70;99.90;;;;;;5043516;28;20201;-37
2023/04/13 09:07:33;;;;;;;4.43;1.80;;;8.80;99.90;;;;;;5035049;28;20213;-37
2023/04/13 09:10:05;;;;;;;4.77;1.47;;;9.00;99.90;;;;;;5051197;28;20173;-40
2023/04/13 09:12:31;;;;;;;6.87;1.47;;;9.20;99.90;;;;;;5035388;28;20181;-38
2023/04/13 09:14:57;;;;;;;6.60;1.80;;;9.40;99.90;;;;;;5034819;28;20236;-38
2023/04/13 09:17:29;;;;;;;5.63;1.77;;;9.60;99.90;;;;;;5035428;28;20178;-41
2023/04/13 09:20:09;;;;;;;6.83;1.67;;;9.80;99.90;;;;;;5035071;28;20221;-40
2023/04/13 09:22:35;;;;;;;5.43;1.50;;;10.00;99.90;;;;;;5051885;28;20177;-44
2023/04/13 09:25:04;;;;;;;5.67;1.17;;;10.30;99.90;;;;;;5051514;28;20182;-39
2023/04/13 09:27:30;;;;;;;7.63;1.87;;;10.40;99.90;;;;;;5051258;28;20228;-37
2023/04/13 09:29:59;;;;;;;8.03;1.60;;;10.50;99.90;;;;;;5053311;28;20208;-37
2023/04/13 09:32:27;;;;;;;3.47;1.27;;;10.70;99.90;;;;;;5052201;28;20254;-39
2023/04/13 09:34:58;;;;;;;4.70;1.50;;;10.80;99.90;;;;;;5050734;28;20206;-38
2023/04/13 09:37:27;;;;;;;6.50;1.93;;;10.90;99.90;;;;;;5047684;28;20174;-38
2023/04/13 09:39:53;;;;;;;6.23;1.50;;;10.80;99.90;;;;;;5048010;28;20260;-38
2023/04/13 09:42:19;;;;;;;4.37;1.70;;;10.70;99.90;;;;;;5033342;28;20166;-38
2023/04/13 09:44:56;;;;;;;6.03;1.63;;;10.70;99.90;;;;;;5050366;28;20206;-38
2023/04/13 09:47:34;;;;;;;6.50;1.80;;;10.60;99.90;;;;;;5050275;28;20185;-38
2023/04/13 09:49:59;;;;;;;2.60;1.10;;;10.50;99.90;;;;;;5050718;28;20177;-37
2023/04/13 09:52:25;;;;;;;3.80;1.60;;;10.30;99.90;;;;;;5031164;28;20191;-41
2023/04/13 09:54:53;;;;;;;5.17;1.33;;;10.10;99.90;;;;;;5031355;28;20694;-40
2023/04/13 09:57:29;;;;;;;4.63;2.10;;;9.90;99.90;;;;;;5031019;28;20194;-36
2023/04/13 09:59:59;;;;;;;4.33;1.30;;;9.60;99.90;;;;;;5050488;28;20181;-37
2023/04/13 10:02:26;;;;;;;4.03;1.37;;;9.30;99.90;;;;;;5051224;28;20245;-38
2023/04/13 10:04:52;;;;;;;5.23;1.37;;;9.20;99.90;;;;;;5049975;28;20216;-38
2023/04/13 10:07:19;;;;;;;4.00;1.30;;;9.10;99.90;;;;;;5030716;28;20187;-41
2023/04/13 10:09:45;;;;;;;4.47;1.20;;;9.20;99.90;;;;;;5049280;28;20311;-37
2023/04/13 10:12:14;;;;;;;4.23;1.47;;;9.40;99.90;;;;;;5050831;28;20662;-38
2023/04/13 10:14:46;;;;;;;2.13;1.20;;;9.80;99.90;;;;;;5050668;28;20260;-37
2023/04/13 10:17:38;;;;;;;5.93;1.40;;;10.10;99.90;;;;;;5060607;28;20241;-37
2023/04/13 10:20:12;;;;;;;6.73;1.57;;;10.30;99.90;;;;;;5067406;28;20192;-39
2023/04/13 10:22:44;;;;;;;3.00;1.20;;;10.50;99.90;;;;;;5053493;28;20190;-35
2023/04/13 10:25:14;;;;;;;5.87;1.60;;;10.60;99.90;;;;;;5046487;28;20159;-36
2023/04/13 10:27:40;;;;;;;4.57;1.60;;;10.70;99.90;;;;;;5033869;28;20179;-38
2023/04/13 10:30:16;;;;;;;5.97;1.70;;;10.50;99.90;;;;;;5049480;28;20246;-40
2023/04/13 10:32:43;;;;;;;4.70;1.83;;;10.40;99.90;;;;;;5048739;28;20216;-38
2023/04/13 10:35:10;;;;;;;4.60;1.57;;;10.20;99.90;;;;;;5053619;28;20209;-40
2023/04/13 10:37:38;;;;;;;8.00;1.57;;;9.90;99.90;;;;;;5047931;28;20178;-37
2023/04/13 10:40:12;;;;;;;4.77;1.30;;;9.80;99.90;;;;;;5032484;28;20189;-37
2023/04/13 10:42:45;;;;;;;5.27;1.47;;;9.70;99.90;;;;;;5050415;28;20193;-38
2023/04/13 10:45:19;;;;;;;5.27;1.70;;;9.80;99.90;;;;;;5051590;28;20261;-37
2023/04/13 10:47:45;;;;;;;7.23;1.70;;;9.80;99.90;;;;;;5033258;28;20182;-38
2023/04/13 10:50:17;;;;;;;3.40;1.30;;;9.80;99.90;;;;;;5051234;28;20185;-39
2023/04/13 10:52:58;;;;;;;7.77;2.00;;;10.00;99.90;;;;;;5032529;28;20182;-40
2023/04/13 10:55:26;;;;;;;4.87;1.60;;;10.10;99.90;;;;;;5049920;28;20197;-39
2023/04/13 10:57:56;;;;;;;6.47;1.70;;;10.20;99.90;;;;;;5049670;28;20185;-40
2023/04/13 11:00:24;;;;;;;4.63;1.40;;;10.30;99.90;;;;;;5050757;28;20174;-40
2023/04/13 11:02:54;;;;;;;9.93;1.87;;;10.50;99.90;;;;;;5033547;28;20186;-40
2023/04/13 11:05:21;;;;;;;6.63;1.97;;;10.50;99.90;;;;;;5057874;28;20174;-40
2023/04/13 11:07:48;;;;;;;7.97;2.13;;;10.50;99.90;;;;;;5048834;28;20227;-41
2023/04/13 11:10:22;;;;;;;8.77;2.30;;;10.40;99.90;;;;;;5032964;28;20185;-41
2023/04/13 11:12:50;;;;;;;4.60;1.50;;;10.40;99.90;;;;;;5049884;28;20190;-38
2023/04/13 11:15:31;;;;;;;5.73;1.90;;;10.40;99.90;;;;;;5049637;28;20301;-44
2023/04/13 11:17:59;;;;;;;3.10;1.80;;;10.50;99.90;;;;;;5050874;28;20192;-41
2023/04/13 11:20:35;;;;;;;5.40;1.70;;;10.50;99.90;;;;;;5050938;28;20178;-38
2023/04/13 11:23:05;;;;;;;6.47;1.70;;;10.40;99.90;;;;;;5049771;28;20177;-41
2023/04/13 11:25:34;;;;;;;8.00;2.20;;;10.40;99.90;;;;;;5032866;28;20231;-43
2023/04/13 11:28:03;;;;;;;6.47;2.07;;;10.40;99.90;;;;;;5050977;28;20205;-39
2023/04/13 11:30:31;;;;;;;4.80;1.60;;;10.60;99.90;;;;;;5049701;28;20181;-39
2023/04/13 11:33:00;;;;;;;7.93;1.80;;;10.60;99.90;;;;;;5049577;28;20178;-38
2023/04/13 11:35:26;;;;;;;5.20;1.90;;;10.70;99.90;;;;;;5041140;28;20178;-39
2023/04/13 11:37:53;;;;;;;7.20;1.73;;;10.80;99.90;;;;;;5050501;28;20204;-38
2023/04/13 11:40:24;;;;;;;7.60;1.90;;;10.90;99.90;;;;;;5049685;28;20181;-40
2023/04/13 11:42:57;;;;;;;2.60;1.27;;;10.90;99.90;;;;;;5049723;28;20197;-38
2023/04/13 11:45:27;;;;;;;2.83;1.13;;;11.00;99.90;;;;;;5049577;28;20174;-39
2023/04/13 11:47:55;;;;;;;2.87;1.23;;;11.20;99.90;;;;;;5050794;28;20199;-41
2023/04/13 11:50:22;;;;;;;2.50;1.40;;;11.40;99.90;;;;;;5050561;28;20179;-38
2023/04/13 11:52:55;;;;;;;4.37;1.37;;;11.40;99.90;;;;;;5049331;28;20648;-39
2023/04/13 11:55:22;;;;;;;3.97;1.50;;;11.60;99.90;;;;;;5049258;28;20206;-37
2023/04/13 11:57:48;;;;;;;3.00;1.10;;;11.70;99.90;;;;;;5049191;28;20211;-39
2023/04/13 12:00:23;;;;;;;4.50;1.70;;;12.00;99.90;;;;;;5048885;28;20191;-38
2023/04/13 12:02:53;;;;;;;3.77;1.30;;;12.00;99.90;;;;;;5033812;28;20367;-40
2023/04/13 12:05:22;;;;;;;4.50;1.20;;;11.90;99.90;;;;;;5044950;28;20177;-38
2023/04/13 12:07:49;;;;;;;3.87;1.63;;;11.80;99.90;;;;;;5054117;28;20181;-39
2023/04/13 12:10:25;;;;;;;3.33;1.13;;;11.60;99.90;;;;;;5054435;28;20180;-37
2023/04/13 12:12:57;;;;;;;6.17;1.50;;;11.40;99.90;;;;;;5053187;28;20203;-39
2023/04/13 12:15:24;;;;;;;4.13;1.30;;;11.30;99.90;;;;;;5053960;28;20223;-38
2023/04/13 12:17:54;;;;;;;6.53;1.40;;;11.20;99.90;;;;;;5052839;28;20259;-39
2023/04/13 12:20:21;;;;;;;3.83;1.40;;;11.10;99.90;;;;;;5052593;28;20194;-39
2023/04/13 12:22:47;;;;;;;6.20;1.63;;;11.00;99.90;;;;;;5035992;28;20179;-37
2023/04/13 12:25:18;;;;;;;3.70;1.50;;;10.90;99.90;;;;;;5036070;28;20183;-38
2023/04/13 12:27:44;;;;;;;8.03;1.77;;;10.70;99.90;;;;;;5035578;28;20278;-38
2023/04/13 12:30:14;;;;;;;5.03;1.73;;;10.60;99.90;;;;;;5052646;28;20216;-37
2023/04/13 12:32:42;;;;;;;8.80;1.83;;;10.40;99.90;;;;;;5053673;28;20204;-39
2023/04/13 12:35:08;;;;;;;4.37;1.73;;;10.80;99.90;;;;;;5053730;28;20268;-38
2023/04/13 12:37:42;;;;;;;4.27;1.30;;;11.10;99.90;;;;;;5053625;28;20182;-38
2023/04/13 12:40:17;;;;;;;4.23;1.23;;;11.30;99.90;;;;;;5035773;28;20191;-37
2023/04/13 12:42:46;;;;;;;6.10;1.70;;;11.40;99.90;;;;;;5052423;28;20182;-39
2023/04/13 12:45:14;;;;;;;4.77;1.53;;;11.40;99.90;;;;;;5052102;28;20179;-40
2023/04/13 12:47:40;;;;;;;7.07;1.50;;;11.40;99.90;;;;;;5035134;28;20192;-38
2023/04/13 12:50:08;;;;;;;3.87;1.60;;;11.30;99.90;;;;;;5052090;28;20177;-37
2023/04/13 12:52:35;;;;;;;2.37;1.10;;;11.10;99.90;;;;;;5035090;28;20274;-38
2023/04/13 12:55:01;;;;;;;2.97;1.10;;;10.50;99.90;;;;;;5051943;28;20206;-38
2023/04/13 12:57:28;;;;;;;2.20;0.90;;;10.00;99.90;;;;;;5053485;28;20261;-37
2023/04/13 12:59:55;;;;;;;2.13;1.00;;;9.50;99.90;;;;;;5053576;28;20174;-37
2023/04/13 13:02:26;;;;;;;2.03;0.90;;;9.20;99.90;;;;;;5053444;28;20174;-37
2023/04/13 13:04:55;;;;;;;2.60;1.10;;;8.80;99.90;;;;;;5053002;28;20190;-37
2023/04/13 13:07:22;;;;;;;1.50;0.90;;;8.60;99.90;;;;;;5031918;28;20206;-38
2023/04/13 13:09:49;;;;;;;3.07;0.77;;;8.20;99.90;;;;;;5032870;28;20214;-37